Airfield :
LOGIN :

Register | Disclaimer

   EN    FR    IT 

 










Legend :    VFR   Marginal VFR   IFR   Intensive IFR   Very Intensive IFR
Visi :
Ceiling :
>= 8 km
>= 3000ft
5 to 8 km
1000 to 3000 ft
1500m to 5 km
500 to 1000 ft
800 to 1500m
200 to 500 ft
< 800m
< 200 ft
Symbols :   Thunderstorms  Fog  Heavy snow  Heavy precipitations  Wind > 20 kt
SIGMETs :     Misc.  Thunderstorms  Icing  Turbulence  Mountain Waves  Volcanic Ashes






- Airport Elevation : 961 ft
- IATA code : VIN


UKWW - Gavryshivka

CURRENT METAR :
  • 271130Z 30005MPS 9999 SCT007 BKN016CB 02/01 Q0998 TEMPO 1200 SHRASN SCT005 BKN015CB

EXPIRED METARs :
  • 271100Z 30003MPS 9999 -SHSNRA SCT006 BKN015CB 01/01 Q0998 TEMPO 1200 SHRASN SCT005 BKN015CB
  • 271030Z 31004MPS 2600 -SHSNRA SCT004 BKN014CB 01/01 Q0999 TEMPO 1200 SHRASN SCT005 BKN015CB
  • 271000Z 29004MPS 1500 1100SE -SHSNRA SCT004 BKN014CB 02/02 Q0999 NOSIG
  • 270930Z 29004MPS 8000 -SHRA SCT009 BKN015CB 02/01 Q0999 NOSIG
  • 270900Z 33005MPS 7000 -SHRASN SCT009 BKN015CB 02/01 Q0997 NOSIG

TAF TAF UKWW
Valid from the 27 at 12:00 until the 27 at 21:00 UTC


271110Z 2712/2721 30005G10MPS 9999 BKN020 TX02/2712Z TN02/2721Z
TEMPO 2712/2715 1200 SHRASN SCT005 BKN015CB



MET'MAP, your aeronautical weather chart ! - Copyright ORBIFLY December 2007 - Disclaimer

ORBIFLY MET'MAP TEAM :

Programming & Development : Alexandra Zaïnal
Concept & original design : Baudouin d'Aumeries
Assistance for programming : Marc-Olivier Méhu
Technical & hardware support : Manuel Goepfert

Contact : metmap@orbifly.com




SOURCES & CREDITS :

   NOAA